Cam Ranh Airport
VVCR : now visible

Airfield :











YOU CAN JOIN US ON...

 
LOGIN :

Register | Disclaimer

   EN    FR    IT 

 









Legend :    VFR   Marginal VFR   IFR   Intensive IFR   Very Intensive IFR
Visi :
Ceiling :
>= 8 km
>= 3000ft
5 to 8 km
1000 to 3000 ft
1500m to 5 km
500 to 1000 ft
800 to 1500m
200 to 500 ft
< 800m
< 200 ft
Symbols :   Thunderstorms  Fog  Heavy snow  Heavy precipitations  Wind > 20 kt






- Airport Elevation : 40 ft
- IATA code : CXR


VVCR - Cam Ranh

CURRENT METAR :
  • 231430Z 19002KT 9999 FEW017 30/25 Q1009 NOSIG

EXPIRED METARs :
  • 231400Z 22003KT 9999 FEW017 30/25 Q1009 NOSIG
  • 231330Z 19003KT 9999 FEW017 30/25 Q1009 NOSIG
  • 231300Z 21006KT 9999 FEW017 30/25 Q1009 NOSIG
  • 231230Z 21007KT 9999 FEW017 31/25 Q1008 NOSIG
  • 231200Z 21004KT 9999 FEW017 31/25 Q1008 NOSIG
  • 231130Z 19007KT 9999 FEW017 31/25 Q1007 NOSIG
  • 231100Z 19008KT 9999 FEW017 31/24 Q1007 NOSIG
  • 231030Z 18009KT 9999 FEW017 31/25 Q1006 NOSIG
  • 231000Z 18009KT 9999 FEW017 31/25 Q1006 NOSIG

TAF TAF VVCR
Valid from the 23 at 12:00 until the 24 at 12:00 UTC


231100Z 2312/2412 35007KT 9999 FEW015 SCT060
BECMG 2403/2404 12010KT
VVTS FIR / Asia



MET'MAP, your aeronautical weather chart ! - Copyright ORBIFLY December 2007 - Disclaimer

ORBIFLY MET'MAP TEAM :

Programming & Development : Alexandra Zaïnal
Original concept : Baudouin d'Aumeries
Technical & hardware support : Manuel Goepfert
Assistance : Marc-Olivier Méhu




SOURCES & CREDITS :

   NOAA       Earth
Advisory